Time;durP1;ratioP1;P1;durP2;ratioP2;P2;SDS_P1;SDS_P2;PMS_P1;PMS_P2;Temp;Humidity;BMP_temperature;BMP_pressure;BME280_temperature;BME280_humidity;BME280_pressure;Samples;Min_cycle;Max_cycle;Signal;HPM_P1;HPM_P2
2022/12/15 00:38:51;;;;;;;42.33;26.77;;;-6.50;99.90;;;-141.84;81.00;18521.47;5032585;28;20727;-68
2022/12/15 00:41:19;;;;;;;39.90;26.57;;;-6.40;99.90;;;-141.84;80.76;18531.63;5032233;28;20295;-70
2022/12/15 00:43:47;;;;;;;41.07;26.33;;;-6.50;99.90;;;-141.84;80.80;18523.50;5031937;28;20246;-70
2022/12/15 00:50:50;;;;;;;40.27;24.83;;;-6.50;99.90;;;-141.84;80.34;18529.59;5031738;28;20237;-70
2022/12/15 01:22:19;;;;;;;37.53;24.60;;;-6.60;99.90;;;-141.84;80.99;18531.63;5050496;28;20229;-68
2022/12/15 01:24:47;;;;;;;39.30;23.63;;;-6.60;99.90;;;-141.84;80.88;18547.88;5051297;28;20225;-72
2022/12/15 01:27:15;;;;;;;38.47;23.97;;;-6.70;99.90;;;-141.84;80.94;18523.50;5051705;28;20278;-67
2022/12/15 01:29:43;;;;;;;37.20;23.33;;;-6.70;99.90;;;-141.84;80.81;18511.31;5050756;28;20221;-69
2022/12/15 01:32:12;;;;;;;35.43;22.77;;;-6.70;99.90;;;-141.84;80.67;18529.59;5051285;28;20749;-70
2022/12/15 01:34:41;;;;;;;36.53;22.23;;;-6.80;99.90;;;-141.84;80.74;18543.81;5051161;28;20239;-69
2022/12/15 01:37:09;;;;;;;40.13;23.40;;;-6.80;99.90;;;-141.84;80.79;18537.72;5051092;28;20599;-68
2022/12/15 01:42:24;;;;;;;34.93;22.17;;;-6.80;99.90;;;-141.84;80.34;18517.41;5051283;28;20196;-69
2022/12/15 01:44:53;;;;;;;34.80;22.37;;;-6.80;99.90;;;-141.84;80.13;18513.34;5051353;28;20207;-69
2022/12/15 01:47:26;;;;;;;36.73;22.73;;;-6.80;99.90;;;-141.84;80.07;18525.53;5051097;28;20229;-69
2022/12/15 01:49:55;;;;;;;36.43;22.07;;;-6.80;99.90;;;-141.84;80.33;18527.56;5050825;28;20299;-69
2022/12/15 01:52:23;;;;;;;37.63;23.20;;;-6.80;99.90;;;-141.84;80.19;18547.88;5050687;28;20246;-70
2022/12/15 01:54:58;;;;;;;36.43;22.00;;;-6.90;99.90;;;-141.84;80.11;18531.63;5050865;28;20278;-69
2022/12/15 01:57:32;;;;;;;33.60;21.70;;;-6.90;99.90;;;-141.84;80.03;18509.28;5050983;28;20203;-69
2022/12/15 02:00:06;;;;;;;36.73;23.97;;;-6.80;99.90;;;-141.84;79.71;18553.97;5051052;28;20186;-69
2022/12/15 02:02:37;;;;;;;31.30;20.70;;;-6.80;99.90;;;-141.84;79.26;18525.53;5050795;28;20244;-69
2022/12/15 02:05:09;;;;;;;30.67;20.67;;;-6.80;99.90;;;-141.84;78.54;18527.56;5050688;28;20633;-69
2022/12/15 02:07:37;;;;;;;33.03;21.27;;;-6.70;99.90;;;-141.84;78.50;18537.72;5050992;28;20231;-68
2022/12/15 02:10:10;;;;;;;33.27;20.93;;;-6.70;99.90;;;-141.84;78.93;18525.53;5050712;28;20229;-70
2022/12/15 02:12:51;;;;;;;34.40;21.70;;;-6.80;99.90;;;-141.84;78.66;18564.13;5050651;28;20192;-69
2022/12/15 02:15:27;;;;;;;31.43;20.03;;;-6.80;99.90;;;-141.84;78.78;18533.66;5050970;28;20675;-69
2022/12/15 02:18:10;;;;;;;31.93;20.80;;;-6.80;99.90;;;-141.84;79.25;18558.03;5050865;28;20237;-69
2022/12/15 02:20:51;;;;;;;33.33;21.07;;;-6.80;99.90;;;-141.84;79.33;18519.44;5050567;28;20263;-69
2022/12/15 02:24:03;;;;;;;33.20;20.03;;;-6.90;99.90;;;-141.84;79.66;18521.47;5050434;28;20238;-69
2022/12/15 02:27:12;;;;;;;33.50;19.80;;;-6.90;99.90;;;-141.84;79.33;18531.63;5035181;28;20229;-70
2022/12/15 02:30:19;;;;;;;33.10;19.30;;;-6.80;99.90;;;-141.84;79.31;18566.16;5050428;28;20235;-70
2022/12/15 02:33:07;;;;;;;35.70;20.30;;;-6.80;99.90;;;-141.84;79.50;18558.03;5029304;28;20221;-69
2022/12/15 02:35:53;;;;;;;30.40;19.60;;;-6.90;99.90;;;-141.84;79.35;18545.84;5054339;28;20227;-70
2022/12/15 02:38:37;;;;;;;32.83;19.80;;;-6.90;99.90;;;-141.84;79.33;18549.91;5054342;28;20292;-69
2022/12/15 02:41:37;;;;;;;34.87;20.67;;;-7.00;99.90;;;-141.84;79.69;18537.72;5054240;28;20267;-69
2022/12/15 02:44:12;;;;;;;30.87;18.93;;;-7.00;99.90;;;-141.84;79.22;18527.56;5054056;28;20299;-70
2022/12/15 02:47:12;;;;;;;34.20;21.10;;;-7.00;99.90;;;-141.84;79.47;18533.66;5054092;28;20239;-69
2022/12/15 02:50:02;;;;;;;34.17;20.43;;;-7.00;99.90;;;-141.84;79.00;18533.66;5053857;28;20286;-68
2022/12/15 02:52:59;;;;;;;31.57;20.60;;;-6.90;99.90;;;-141.84;78.99;18533.66;5053890;28;20226;-69
2022/12/15 02:55:40;;;;;;;30.37;19.60;;;-7.00;99.90;;;-141.84;78.99;18527.56;5054086;28;20227;-70
2022/12/15 02:58:18;;;;;;;29.47;19.63;;;-7.00;99.90;;;-141.84;79.10;18574.28;5054274;28;20274;-70
2022/12/15 03:00:54;;;;;;;30.77;19.53;;;-7.00;99.90;;;-141.84;79.30;18537.72;5054327;28;20395;-68
2022/12/15 03:03:26;;;;;;;33.10;19.77;;;-7.10;99.90;;;-141.84;79.44;18535.69;5054222;28;20575;-71
2022/12/15 03:05:57;;;;;;;32.57;19.73;;;-7.10;99.90;;;-141.84;79.35;18566.16;5054725;28;20240;-71
2022/12/15 03:08:25;;;;;;;30.97;19.07;;;-7.10;99.90;;;-141.84;78.87;18541.78;5053868;28;20255;-69
2022/12/15 03:10:56;;;;;;;32.73;20.47;;;-7.00;99.90;;;-141.84;78.90;18560.06;5053987;28;20232;-68
2022/12/15 03:13:25;;;;;;;32.63;19.90;;;-6.90;99.90;;;-141.84;78.94;18551.94;5053750;28;20225;-69
2022/12/15 03:15:53;;;;;;;30.13;19.03;;;-7.10;99.90;;;-141.84;79.04;18543.81;5053901;28;20279;-71
2022/12/15 03:18:23;;;;;;;31.50;19.37;;;-7.10;99.90;;;-141.84;78.58;18535.69;5054284;28;20827;-71
2022/12/15 03:20:52;;;;;;;33.33;20.50;;;-7.00;99.90;;;-141.84;78.25;18549.91;5053890;28;20229;-69
2022/12/15 03:23:21;;;;;;;28.97;18.93;;;-7.00;99.90;;;-141.84;78.45;18531.63;5053483;28;20239;-71
2022/12/15 03:25:50;;;;;;;27.07;17.00;;;-7.40;99.90;;;-141.84;78.65;18549.91;5053621;28;20244;-70
2022/12/15 03:28:18;;;;;;;28.73;19.40;;;-7.10;99.90;;;-141.84;78.82;18533.66;5053632;28;20275;-70
2022/12/15 03:30:47;;;;;;;32.00;19.33;;;-7.10;99.90;;;-141.84;79.11;18549.91;5053417;28;20227;-69
2022/12/15 03:33:18;;;;;;;34.63;19.80;;;-7.10;99.90;;;-141.84;79.40;18531.63;5054199;28;20247;-70
2022/12/15 03:35:48;;;;;;;33.27;19.80;;;-7.10;99.90;;;-141.84;79.17;18533.66;5053192;28;20311;-70
2022/12/15 03:38:17;;;;;;;30.43;19.93;;;-7.10;99.90;;;-141.84;78.57;18578.38;5053258;28;20228;-70
2022/12/15 03:40:45;;;;;;;33.47;19.57;;;-7.10;99.90;;;-141.84;78.47;18545.84;5053166;28;20728;-70
2022/12/15 03:43:13;;;;;;;33.03;20.67;;;-7.10;99.90;;;-141.84;78.35;18553.97;5053157;28;20723;-70
2022/12/15 03:45:41;;;;;;;32.27;20.10;;;-7.00;99.90;;;-141.84;78.45;18558.03;5051993;28;20205;-72
2022/12/15 03:48:09;;;;;;;31.20;19.83;;;-7.00;99.90;;;-141.84;78.84;18568.19;5053339;28;20282;-69
2022/12/15 03:50:37;;;;;;;29.20;18.80;;;-7.10;99.90;;;-141.84;78.73;18556.00;5052692;28;20233;-70
2022/12/15 03:53:07;;;;;;;32.90;19.13;;;-7.00;99.90;;;-141.84;78.75;18497.09;5052795;28;20294;-71
2022/12/15 03:55:35;;;;;;;30.37;19.57;;;-7.00;99.90;;;-141.84;79.05;18558.03;5053138;28;20227;-69
2022/12/15 03:58:03;;;;;;;29.87;19.87;;;-7.00;99.90;;;-141.84;78.59;18531.63;5052874;28;20239;-70
2022/12/15 04:00:32;;;;;;;32.67;21.03;;;-7.00;99.90;;;-141.84;78.52;18533.66;5052945;28;20541;-71
2022/12/15 04:03:00;;;;;;;32.00;19.60;;;-7.00;99.90;;;-141.84;78.29;18541.78;5053363;28;20258;-70
2022/12/15 04:05:31;;;;;;;32.70;20.40;;;-6.90;99.90;;;-141.84;78.39;18529.59;5052619;28;20248;-70
2022/12/15 04:08:01;;;;;;;31.47;19.67;;;-6.90;99.90;;;-141.84;78.27;18568.19;5052460;28;20229;-68
2022/12/15 04:10:33;;;;;;;29.93;19.67;;;-6.90;99.90;;;-141.84;78.44;18549.91;5052427;28;20222;-69
2022/12/15 04:13:04;;;;;;;29.30;18.77;;;-6.90;99.90;;;-141.84;77.94;18578.38;5052598;28;20304;-71
2022/12/15 04:15:33;;;;;;;29.20;18.97;;;-6.90;99.90;;;-141.84;77.71;18574.28;5052629;28;20199;-70
2022/12/15 04:18:03;;;;;;;31.53;18.93;;;-6.90;99.90;;;-141.84;78.04;18545.84;5052872;28;20231;-70
2022/12/15 04:20:32;;;;;;;28.00;18.40;;;-6.90;99.90;;;-141.84;78.26;18519.44;5052341;28;20239;-70
2022/12/15 04:23:01;;;;;;;30.63;18.20;;;-6.90;99.90;;;-141.84;78.87;18521.47;5052213;28;20707;-70
2022/12/15 05:32:31;;;;;;;27.43;17.70;;;-6.90;99.90;;;-141.84;80.07;18553.97;5053507;28;20225;-70
2022/12/15 05:35:00;;;;;;;28.27;17.23;;;-6.90;99.90;;;-141.84;79.86;18515.38;5053147;28;20616;-71
2022/12/15 05:37:28;;;;;;;26.77;17.00;;;-6.80;99.90;;;-141.84;79.68;18525.53;5053067;28;20234;-70
2022/12/15 05:39:56;;;;;;;28.80;17.47;;;-6.80;99.90;;;-141.84;79.09;18545.84;5053080;28;20229;-70
2022/12/15 05:42:24;;;;;;;31.10;18.07;;;-6.70;99.90;;;-141.84;78.52;18558.03;5053126;28;20648;-69
2022/12/15 05:44:52;;;;;;;33.50;20.63;;;-6.60;99.90;;;-141.84;77.97;18545.84;5052916;28;20315;-69
2022/12/15 05:47:20;;;;;;;30.30;21.43;;;-6.60;99.90;;;-141.84;77.87;18547.88;5052207;28;20749;-71
2022/12/15 05:49:50;;;;;;;32.80;22.73;;;-6.60;99.90;;;-141.84;78.27;18547.88;5051775;28;20240;-70
2022/12/15 05:52:18;;;;;;;35.13;22.70;;;-6.70;99.90;;;-141.84;79.03;18574.28;5050631;28;20225;-69
2022/12/15 05:54:46;;;;;;;34.90;23.97;;;-6.80;99.90;;;-141.84;79.01;18541.78;5051120;28;20232;-70
2022/12/15 05:57:14;;;;;;;28.50;19.77;;;-6.80;99.90;;;-141.84;78.95;18541.78;5051491;28;20212;-69
2022/12/15 05:59:42;;;;;;;29.57;19.17;;;-6.80;99.90;;;-141.84;79.27;18570.22;5050711;28;20261;-69
2022/12/15 06:02:10;;;;;;;29.53;18.43;;;-6.90;99.90;;;-141.84;79.44;18537.72;5050799;28;20224;-70
2022/12/15 06:04:39;;;;;;;27.70;18.70;;;-6.90;99.90;;;-141.84;79.79;18547.88;5051474;28;20238;-69
2022/12/15 06:07:08;;;;;;;28.53;18.37;;;-7.00;99.90;;;-141.84;80.10;18562.09;5050985;28;20240;-70
2022/12/15 06:09:36;;;;;;;27.07;17.17;;;-6.90;99.90;;;-141.84;79.98;18541.78;5050028;28;20260;-69
2022/12/15 06:12:05;;;;;;;26.30;16.30;;;-7.00;99.90;;;-141.84;80.56;18523.50;5050925;28;20668;-70
2022/12/15 06:14:33;;;;;;;25.97;16.93;;;-7.00;99.90;;;-141.84;80.73;18531.63;5050329;28;20622;-69
2022/12/15 06:17:01;;;;;;;26.80;17.53;;;-7.00;99.90;;;-141.84;80.53;18527.56;5050652;28;20705;-70
2022/12/15 06:19:29;;;;;;;29.07;18.10;;;-7.00;99.90;;;-141.84;80.22;18537.72;5050713;28;20235;-69
2022/12/15 06:21:57;;;;;;;27.43;16.43;;;-7.00;99.90;;;-141.84;80.00;18533.66;5050862;28;20236;-69
2022/12/15 06:24:27;;;;;;;33.33;19.80;;;-6.90;99.90;;;-141.84;80.04;18580.41;5050494;28;20208;-70
2022/12/15 06:26:55;;;;;;;35.70;20.70;;;-6.90;99.90;;;-141.84;79.55;18513.34;5051224;28;20262;-69
2022/12/15 06:29:23;;;;;;;28.23;19.07;;;-6.90;99.90;;;-141.84;80.00;18551.94;5049985;28;20293;-70
2022/12/15 06:31:52;;;;;;;28.37;19.97;;;-7.00;99.90;;;-141.84;80.34;18545.84;5050386;28;20239;-70
2022/12/15 06:34:20;;;;;;;30.60;21.27;;;-7.00;99.90;;;-141.84;80.85;18562.09;5050540;28;20282;-69
2022/12/15 06:36:49;;;;;;;29.97;20.57;;;-7.10;99.90;;;-141.84;81.01;18556.00;5050764;28;20231;-70
2022/12/15 06:39:17;;;;;;;33.30;19.90;;;-7.10;99.90;;;-141.84;81.15;18531.63;5050722;28;20683;-67
2022/12/15 06:41:47;;;;;;;36.40;22.27;;;-7.10;99.90;;;-141.84;81.06;18545.84;5050561;28;20242;-67
2022/12/15 06:44:16;;;;;;;34.37;21.67;;;-7.10;99.90;;;-141.84;81.51;18535.69;5050038;28;20231;-68
2022/12/15 06:46:45;;;;;;;34.10;19.83;;;-7.10;99.90;;;-141.84;80.83;18541.78;5050916;28;20282;-66
2022/12/15 06:49:14;;;;;;;34.13;19.07;;;-7.00;99.90;;;-141.84;80.65;18501.16;5050110;28;20257;-67
2022/12/15 06:51:43;;;;;;;30.43;17.87;;;-6.90;99.90;;;-141.84;80.60;18533.66;5050361;28;20216;-65
2022/12/15 06:54:12;;;;;;;29.10;16.67;;;-6.90;99.90;;;-141.84;80.69;18523.50;5050513;28;20205;-66
2022/12/15 06:56:41;;;;;;;28.50;16.97;;;-6.90;99.90;;;-141.84;80.97;18541.78;5050148;28;20703;-67
2022/12/15 06:59:12;;;;;;;29.03;17.57;;;-7.00;99.90;;;-141.84;81.02;18529.59;5050118;28;20235;-67
2022/12/15 07:01:41;;;;;;;29.23;19.10;;;-6.90;99.90;;;-141.84;81.10;18531.63;5050553;28;20265;-66
2022/12/15 07:04:10;;;;;;;28.17;17.70;;;-6.90;99.90;;;-141.84;81.17;18541.78;5050167;28;20251;-66
2022/12/15 07:06:41;;;;;;;29.40;18.17;;;-7.00;99.90;;;-141.84;81.19;18551.94;5049925;28;20208;-66
2022/12/15 07:09:16;;;;;;;32.33;18.63;;;-6.90;99.90;;;-141.84;81.20;18566.16;5050237;28;20220;-67
2022/12/15 07:11:48;;;;;;;25.10;16.43;;;-6.90;99.90;;;-141.84;81.22;18503.19;5050930;28;20296;-66
2022/12/15 07:14:17;;;;;;;29.57;17.67;;;-6.90;99.90;;;-141.84;81.32;18509.28;5050244;28;20229;-66
2022/12/15 07:16:45;;;;;;;23.20;15.73;;;-6.90;99.90;;;-141.84;81.24;18515.38;5050674;28;20228;-67
2022/12/15 07:19:14;;;;;;;30.70;17.90;;;-6.90;99.90;;;-141.84;81.48;18533.66;5050777;28;20302;-67
2022/12/15 07:21:42;;;;;;;29.30;17.10;;;-6.80;99.90;;;-141.84;81.61;18545.84;5052952;28;20208;-67
2022/12/15 07:24:11;;;;;;;26.17;15.93;;;-6.80;99.90;;;-141.84;81.58;18517.41;5054673;28;20215;-67
2022/12/15 07:26:40;;;;;;;26.53;17.40;;;-6.70;99.90;;;-141.84;81.22;18488.97;5054343;28;20228;-68
2022/12/15 07:29:10;;;;;;;27.90;17.23;;;-6.60;99.90;;;-141.84;81.20;18507.25;5053557;28;20241;-68
2022/12/15 07:31:40;;;;;;;28.37;17.70;;;-6.60;99.90;;;-141.84;81.31;18549.91;5053546;28;20235;-69
2022/12/15 07:34:08;;;;;;;23.93;16.17;;;-6.60;99.90;;;-141.84;80.95;18495.06;5053353;28;20235;-69
2022/12/15 07:36:36;;;;;;;26.97;16.80;;;-6.50;99.90;;;-141.84;80.83;18531.63;5053411;28;20201;-69
2022/12/15 07:39:05;;;;;;;28.23;18.17;;;-6.50;99.90;;;-141.84;81.24;18491.00;5053576;28;20298;-69
2022/12/15 07:41:34;;;;;;;23.93;15.57;;;-6.50;99.90;;;-141.84;80.92;18499.13;5053258;28;20237;-68
2022/12/15 07:44:02;;;;;;;27.10;17.03;;;-6.50;99.90;;;-141.84;80.86;18507.25;5052848;28;20235;-68
2022/12/15 07:46:30;;;;;;;28.80;17.73;;;-6.50;99.90;;;-141.84;80.92;18497.09;5052984;28;20246;-66
2022/12/15 07:49:00;;;;;;;27.70;17.03;;;-6.50;99.90;;;-141.84;80.85;18533.66;5052524;28;20727;-68
2022/12/15 07:51:28;;;;;;;25.70;15.97;;;-6.50;99.90;;;-141.84;81.04;18533.66;5044004;28;20258;-67
2022/12/15 07:53:56;;;;;;;23.73;16.27;;;-6.40;99.90;;;-141.84;80.64;18517.41;5053446;28;20209;-68
2022/12/15 07:56:24;;;;;;;24.87;16.00;;;-6.30;99.90;;;-141.84;80.05;18529.59;5053052;28;20569;-68
2022/12/15 07:58:53;;;;;;;25.97;16.80;;;-6.20;99.90;;;-141.84;79.97;18533.66;5052386;28;20221;-67
2022/12/15 08:01:21;;;;;;;27.03;16.87;;;-6.20;99.90;;;-141.84;80.14;18519.44;5052809;28;20228;-68
2022/12/15 08:03:49;;;;;;;30.33;17.70;;;-6.20;99.90;;;-141.84;79.88;18521.47;5052716;28;20278;-69
2022/12/15 08:06:19;;;;;;;25.67;17.50;;;-6.10;99.90;;;-141.84;79.88;18527.56;5053290;28;20204;-66
2022/12/15 08:08:49;;;;;;;24.30;16.83;;;-6.10;99.90;;;-141.84;79.78;18543.81;5052596;28;20235;-68
2022/12/15 08:11:21;;;;;;;27.27;16.30;;;-6.10;99.90;;;-141.84;79.15;18507.25;5052659;28;20306;-67
2022/12/15 08:13:49;;;;;;;25.30;16.20;;;-6.10;99.90;;;-141.84;78.64;18560.06;5052574;28;20325;-67
2022/12/15 08:16:38;;;;;;;29.93;16.50;;;-6.00;99.90;;;-141.84;79.07;18543.81;5052552;28;20284;-67
2022/12/15 08:19:10;;;;;;;24.27;16.00;;;-6.00;99.90;;;-141.84;78.96;18486.94;5052473;28;20693;-66
2022/12/15 08:21:42;;;;;;;28.20;16.73;;;-5.90;99.90;;;-141.84;79.21;18533.66;5052759;28;20187;-67
2022/12/15 08:24:11;;;;;;;28.40;16.97;;;-5.90;99.90;;;-141.84;79.20;18551.94;5053079;28;20548;-67
2022/12/15 08:26:41;;;;;;;25.70;15.87;;;-5.80;99.90;;;-141.84;78.86;18531.63;5052587;28;20239;-67
2022/12/15 08:29:12;;;;;;;24.60;16.37;;;-5.70;99.90;;;-141.84;77.85;18525.53;5052304;28;20229;-68
2022/12/15 08:32:00;;;;;;;29.97;18.20;;;-5.60;99.90;;;-141.84;78.20;18529.59;5052082;28;20250;-67
2022/12/15 08:34:29;;;;;;;23.93;15.87;;;-5.50;99.90;;;-141.84;78.22;18533.66;5052544;28;20220;-67
2022/12/15 08:36:59;;;;;;;28.30;17.77;;;-5.40;99.90;;;-141.84;78.01;18533.66;5052145;28;20221;-67
2022/12/15 08:39:27;;;;;;;26.57;16.40;;;-5.30;99.90;;;-141.84;78.11;18531.63;5052190;28;20195;-67
2022/12/15 08:41:56;;;;;;;24.10;16.10;;;-5.30;99.90;;;-141.84;77.84;18523.50;5052477;28;20201;-67
2022/12/15 08:44:24;;;;;;;22.23;16.20;;;-5.20;99.90;;;-141.84;78.11;18525.53;5051830;28;20624;-67
2022/12/15 08:46:52;;;;;;;24.90;15.00;;;-5.20;99.90;;;-141.84;77.94;18521.47;5051704;28;20357;-66
2022/12/15 08:49:20;;;;;;;26.37;16.57;;;-5.10;99.90;;;-141.84;77.38;18560.06;5051683;28;20233;-69
2022/12/15 08:51:50;;;;;;;23.27;16.43;;;-5.10;99.90;;;-141.84;77.11;18531.63;5051505;28;20228;-66
2022/12/15 08:54:20;;;;;;;21.87;15.53;;;-4.90;99.90;;;-141.84;76.97;18564.13;5052332;28;20205;-66
2022/12/15 08:56:49;;;;;;;24.07;16.10;;;-4.80;99.90;;;-141.84;76.30;18545.84;5051912;28;20321;-68
2022/12/15 08:59:17;;;;;;;23.23;15.70;;;-4.70;99.90;;;-141.84;76.12;18558.03;5051134;28;20559;-68
2022/12/15 09:01:46;;;;;;;25.63;15.83;;;-4.70;99.90;;;-141.84;76.14;18562.09;5051735;28;20227;-67
2022/12/15 09:04:14;;;;;;;23.63;15.93;;;-4.70;99.90;;;-141.84;75.70;18556.00;5051960;28;20248;-68
2022/12/15 09:06:44;;;;;;;23.27;15.37;;;-4.60;99.90;;;-141.84;75.40;18576.31;5051913;28;20482;-67
2022/12/15 09:09:20;;;;;;;23.97;15.67;;;-4.50;99.90;;;-141.84;75.66;18556.00;5052012;28;20206;-67
2022/12/15 09:11:49;;;;;;;22.43;14.90;;;-4.50;99.90;;;-141.84;75.53;18509.28;5031633;28;20218;-67
2022/12/15 09:14:18;;;;;;;28.73;16.83;;;-4.40;99.90;;;-141.84;75.60;18553.97;5031571;28;20231;-66
2022/12/15 09:16:54;;;;;;;24.77;15.73;;;-4.40;99.90;;;-141.84;75.45;18574.28;5044146;28;20239;-67
2022/12/15 09:19:22;;;;;;;25.77;15.63;;;-4.20;99.90;;;-141.84;75.35;18547.88;5043165;28;20225;-68
2022/12/15 09:21:50;;;;;;;24.27;16.03;;;-4.00;99.90;;;-141.84;75.34;18564.13;5031301;28;20612;-68
2022/12/15 09:24:20;;;;;;;22.43;15.47;;;-4.00;99.90;;;-141.84;74.79;18574.28;5031699;28;20203;-67
2022/12/15 09:27:01;;;;;;;23.73;15.80;;;-4.00;99.90;;;-141.84;74.25;18566.16;5025282;28;20695;-66
2022/12/15 09:29:30;;;;;;;26.73;16.17;;;-3.90;99.90;;;-141.84;74.06;18556.00;5039851;28;20236;-66
2022/12/15 09:31:58;;;;;;;30.00;17.20;;;-3.80;99.90;;;-141.84;73.93;18537.72;5037799;28;20872;-69
2022/12/15 09:34:26;;;;;;;23.97;16.67;;;-3.80;99.90;;;-141.84;74.17;18588.53;5031271;28;20222;-66
2022/12/15 09:36:55;;;;;;;27.07;16.77;;;-3.80;99.90;;;-141.84;74.03;18545.84;5031305;28;20231;-69
2022/12/15 09:39:25;;;;;;;24.40;15.63;;;-3.70;99.90;;;-141.84;73.25;18568.19;5031205;28;20227;-67
2022/12/15 09:41:58;;;;;;;22.20;15.30;;;-3.60;99.90;;;-141.84;72.92;18568.19;5031375;28;20544;-68
2022/12/15 09:44:30;;;;;;;23.73;16.03;;;-3.50;99.90;;;-141.84;72.83;18614.94;5030339;28;20242;-68
2022/12/15 09:47:14;;;;;;;24.50;16.27;;;-3.30;99.90;;;-141.84;71.41;18612.91;5030899;28;20227;-67
2022/12/15 09:50:03;;;;;;;21.30;14.70;;;-3.10;99.90;;;-141.84;71.51;18586.50;5030888;28;20706;-67
2022/12/15 09:52:35;;;;;;;22.30;14.70;;;-3.00;99.90;;;-141.84;71.90;18635.25;5040022;28;20223;-67
2022/12/15 09:55:20;;;;;;;21.20;14.53;;;-2.80;99.90;;;-141.84;72.09;18592.59;5045329;28;20251;-68
2022/12/15 09:57:54;;;;;;;24.40;14.93;;;-2.50;99.90;;;-141.84;70.38;18608.84;5030590;28;20231;-67
2022/12/15 10:00:25;;;;;;;22.10;14.77;;;-2.40;99.90;;;-141.84;69.50;18600.72;5031378;28;20672;-68
2022/12/15 10:03:29;;;;;;;23.03;15.87;;;-2.30;99.90;;;-141.84;69.67;18627.13;5030681;28;20216;-67
2022/12/15 10:06:11;;;;;;;23.43;16.27;;;-2.40;99.90;;;-141.84;69.62;18606.81;5031276;28;20213;-68
2022/12/15 10:08:52;;;;;;;22.37;15.17;;;-2.50;99.90;;;-141.84;69.31;18619.00;5031364;28;20232;-67
2022/12/15 10:11:43;;;;;;;29.93;16.00;;;-2.50;99.90;;;-141.84;69.22;18616.97;5031086;28;20228;-67
2022/12/15 10:14:30;;;;;;;20.70;14.70;;;-2.50;99.90;;;-141.84;69.25;18606.81;5031401;28;20268;-69
2022/12/15 10:17:20;;;;;;;21.60;14.73;;;-2.60;99.90;;;-141.84;68.15;18649.47;5031454;28;20261;-68
2022/12/15 10:19:59;;;;;;;24.90;15.47;;;-2.50;99.90;;;-141.84;68.43;18598.69;5031007;28;20217;-67
2022/12/15 10:22:32;;;;;;;22.90;15.93;;;-2.40;99.90;;;-141.84;68.32;18610.88;5030736;28;20231;-67
2022/12/15 10:25:14;;;;;;;22.43;15.00;;;-2.30;99.90;;;-141.84;67.56;18635.25;5031069;28;20229;-68
2022/12/15 10:28:26;;;;;;;21.47;15.30;;;-2.10;99.90;;;-141.84;67.14;18647.44;5044028;28;20624;-67
2022/12/15 10:31:01;;;;;;;22.40;15.80;;;-1.90;99.90;;;-141.84;66.56;18637.28;5050556;28;20738;-68
2022/12/15 10:33:38;;;;;;;20.63;14.83;;;-1.90;99.90;;;-141.84;65.46;18655.56;5050443;28;20695;-66
2022/12/15 10:36:11;;;;;;;23.13;15.03;;;-1.70;99.90;;;-141.84;65.18;18659.63;5051032;28;20193;-68
2022/12/15 10:38:44;;;;;;;22.00;15.43;;;-1.70;99.90;;;-141.84;65.74;18696.19;5069360;28;20238;-66
2022/12/15 10:41:15;;;;;;;20.63;15.40;;;-1.60;99.90;;;-141.84;65.31;18659.63;5051953;28;20232;-68
2022/12/15 10:43:47;;;;;;;24.40;16.90;;;-1.40;99.90;;;-141.84;65.39;18669.78;5050447;28;20229;-68
2022/12/15 10:46:35;;;;;;;23.50;15.53;;;-1.50;99.90;;;-141.84;65.18;18675.88;5050707;28;20229;-67
2022/12/15 10:49:24;;;;;;;22.00;15.73;;;-1.50;99.90;;;-141.84;65.39;18663.69;5050001;28;20237;-68
2022/12/15 10:51:56;;;;;;;21.47;15.77;;;-1.50;99.90;;;-141.84;65.28;18667.75;5032850;28;20233;-67
2022/12/15 10:54:31;;;;;;;21.47;14.43;;;-1.50;99.90;;;-141.84;63.42;18704.31;5011354;28;20198;-66
2022/12/15 10:57:15;;;;;;;23.07;16.43;;;-1.30;99.90;;;-141.84;63.59;18708.41;5030868;28;20201;-68
2022/12/15 10:59:45;;;;;;;22.90;15.10;;;-1.30;99.90;;;-141.84;63.44;18692.13;5054590;28;20754;-67
2022/12/15 11:02:32;;;;;;;23.57;15.07;;;-1.50;99.90;;;-141.84;63.89;18714.50;5054244;28;20250;-67
2022/12/15 11:05:05;;;;;;;22.50;14.93;;;-1.60;99.90;;;-141.84;64.41;18669.78;5054594;28;20802;-68
2022/12/15 11:07:39;;;;;;;21.53;15.43;;;-1.60;99.90;;;-141.84;64.24;18702.28;5054099;28;20224;-66
2022/12/15 11:10:19;;;;;;;23.80;15.27;;;-1.70;99.90;;;-141.84;64.31;18698.22;5053944;28;20230;-66
2022/12/15 11:13:09;;;;;;;20.30;14.87;;;-1.70;99.90;;;-141.84;64.07;18667.75;5054101;28;20228;-67
2022/12/15 11:15:44;;;;;;;21.47;14.40;;;-1.70;99.90;;;-141.84;64.36;18671.81;5054189;28;20195;-68
2022/12/15 11:18:30;;;;;;;23.13;15.13;;;-1.90;99.90;;;-141.84;64.20;18675.88;5054304;28;20645;-68
2022/12/15 11:21:05;;;;;;;23.90;14.67;;;-1.80;99.90;;;-141.84;64.00;18667.75;5054481;28;20198;-67
2022/12/15 11:23:56;;;;;;;20.60;14.23;;;-1.70;99.90;;;-141.84;64.38;18671.81;5053483;28;20231;-66
2022/12/15 11:26:38;;;;;;;19.90;13.70;;;-1.80;99.90;;;-141.84;64.67;18675.88;5050661;28;20222;-68
2022/12/15 11:29:26;;;;;;;22.53;15.20;;;-1.70;99.90;;;-141.84;64.38;18679.94;5033749;28;20229;-68
2022/12/15 11:31:56;;;;;;;20.40;14.63;;;-1.70;99.90;;;-141.84;64.30;18698.22;5033954;28;20275;-67
2022/12/15 11:34:41;;;;;;;21.93;14.77;;;-1.80;99.90;;;-141.84;64.20;18669.78;5033637;28;20311;-68
2022/12/15 11:37:45;;;;;;;20.30;14.33;;;-1.70;99.90;;;-141.84;64.56;18641.34;5033596;28;20220;-68
2022/12/15 11:40:38;;;;;;;22.83;14.83;;;-1.80;99.90;;;-141.84;65.14;18669.78;5033507;28;20770;-68
2022/12/15 11:43:52;;;;;;;20.80;13.73;;;-1.90;99.90;;;-141.84;65.34;18667.75;5033290;28;20233;-67
2022/12/15 11:46:23;;;;;;;20.80;14.33;;;-1.90;99.90;;;-141.84;65.28;18712.47;5033611;28;20230;-68
2022/12/15 11:49:23;;;;;;;21.37;14.53;;;-1.90;99.90;;;-141.84;65.70;18684.00;5013132;28;20242;-68
2022/12/15 11:52:02;;;;;;;21.70;14.97;;;-1.90;99.90;;;-141.84;65.66;18651.50;5031109;28;20720;-67
2022/12/15 11:54:41;;;;;;;21.70;14.83;;;-1.90;99.90;;;-141.84;64.96;18708.41;5051910;28;20579;-68
2022/12/15 11:57:43;;;;;;;22.33;15.33;;;-1.90;99.90;;;-141.84;65.47;18669.78;5033496;28;20207;-67
2022/12/15 12:00:17;;;;;;;22.53;14.60;;;-2.00;99.90;;;-141.84;65.39;18647.44;5053286;28;20228;-68
2022/12/15 12:03:18;;;;;;;20.33;13.93;;;-2.00;99.90;;;-141.84;65.82;18661.66;5053018;28;20240;-67
2022/12/15 12:06:10;;;;;;;21.47;14.57;;;-2.00;99.90;;;-141.84;65.98;18673.84;5052952;28;20236;-67
2022/12/15 12:09:27;;;;;;;21.13;14.40;;;-2.00;99.90;;;-141.84;65.02;18677.91;5052658;28;20232;-67
2022/12/15 12:12:11;;;;;;;19.53;14.40;;;-1.80;99.90;;;-141.84;65.55;18686.03;5032990;28;20240;-67
2022/12/15 12:14:51;;;;;;;23.07;15.03;;;-1.80;99.90;;;-141.84;65.40;18679.94;5051585;28;20240;-68
2022/12/15 12:17:36;;;;;;;23.43;14.27;;;-1.80;99.90;;;-141.84;65.68;18653.53;5052740;28;20228;-68
2022/12/15 12:20:18;;;;;;;24.47;14.60;;;-1.80;99.90;;;-141.84;65.89;18690.09;5052712;28;20623;-67
2022/12/15 12:22:59;;;;;;;21.87;15.00;;;-1.80;99.90;;;-141.84;66.29;18696.19;5052449;28;20228;-67
2022/12/15 12:25:27;;;;;;;22.27;14.40;;;-1.80;99.90;;;-141.84;65.65;18665.72;5052569;28;20236;-67
2022/12/15 12:28:02;;;;;;;21.57;14.70;;;-1.80;99.90;;;-141.84;64.87;18675.88;5067807;28;20728;-67
2022/12/15 12:30:41;;;;;;;22.50;14.30;;;-1.80;99.90;;;-141.84;64.51;18675.88;5072317;28;20208;-67
2022/12/15 12:33:30;;;;;;;20.23;14.80;;;-1.80;99.90;;;-141.84;64.70;18673.84;5072712;28;20173;-67
2022/12/15 12:36:09;;;;;;;24.27;14.87;;;-1.80;99.90;;;-141.84;65.22;18692.13;5052684;28;20762;-67
2022/12/15 12:38:45;;;;;;;20.90;15.30;;;-1.90;99.90;;;-141.84;65.39;18686.03;5052000;28;20635;-67
2022/12/15 12:41:33;;;;;;;21.70;15.00;;;-1.90;99.90;;;-141.84;64.96;18669.78;5032853;28;20221;-67
2022/12/15 12:44:15;;;;;;;22.27;14.33;;;-1.80;99.90;;;-141.84;65.28;18665.72;5045328;28;20241;-67